sensor_id;sensor_type;location;lat;lon;timestamp;temperature;humidity
24682;DHT22;12802;53.390;-2.328;2023-07-29T00:00:21;16.50;99.90
24682;DHT22;12802;53.390;-2.328;2023-07-29T00:02:47;16.50;99.90
24682;DHT22;12802;53.390;-2.328;2023-07-29T00:05:13;16.50;99.90
24682;DHT22;12802;53.390;-2.328;2023-07-29T00:07:38;16.50;99.90
24682;DHT22;12802;53.390;-2.328;2023-07-29T00:10:04;16.50;99.90
24682;DHT22;12802;53.390;-2.328;2023-07-29T00:12:30;16.50;99.90
24682;DHT22;12802;53.390;-2.328;2023-07-29T00:14:56;16.50;99.90
24682;DHT22;12802;53.390;-2.328;2023-07-29T00:17:22;16.50;99.90
24682;DHT22;12802;53.390;-2.328;2023-07-29T00:19:47;16.50;99.90
24682;DHT22;12802;53.390;-2.328;2023-07-29T00:22:13;16.50;99.90
24682;DHT22;12802;53.390;-2.328;2023-07-29T00:24:39;16.50;99.90
24682;DHT22;12802;53.390;-2.328;2023-07-29T00:27:05;16.60;99.90
24682;DHT22;12802;53.390;-2.328;2023-07-29T00:29:31;16.60;99.90
24682;DHT22;12802;53.390;-2.328;2023-07-29T00:31:57;16.50;99.90
24682;DHT22;12802;53.390;-2.328;2023-07-29T00:34:22;16.50;99.90
24682;DHT22;12802;53.390;-2.328;2023-07-29T00:36:48;16.60;99.90
24682;DHT22;12802;53.390;-2.328;2023-07-29T00:39:14;16.50;99.90
24682;DHT22;12802;53.390;-2.328;2023-07-29T00:41:40;16.60;99.90
24682;DHT22;12802;53.390;-2.328;2023-07-29T00:44:06;16.50;99.90
24682;DHT22;12802;53.390;-2.328;2023-07-29T00:46:34;16.60;99.90
24682;DHT22;12802;53.390;-2.328;2023-07-29T00:49:00;16.50;99.90
24682;DHT22;12802;53.390;-2.328;2023-07-29T00:51:26;16.60;99.90
24682;DHT22;12802;53.390;-2.328;2023-07-29T00:53:51;16.50;99.90
24682;DHT22;12802;53.390;-2.328;2023-07-29T00:56:18;16.50;99.90
24682;DHT22;12802;53.390;-2.328;2023-07-29T00:58:44;16.50;99.90
24682;DHT22;12802;53.390;-2.328;2023-07-29T01:01:10;16.50;99.90
24682;DHT22;12802;53.390;-2.328;2023-07-29T01:03:36;16.50;99.90
24682;DHT22;12802;53.390;-2.328;2023-07-29T01:06:20;16.40;99.90
24682;DHT22;12802;53.390;-2.328;2023-07-29T01:09:02;16.40;99.90
24682;DHT22;12802;53.390;-2.328;2023-07-29T01:14:29;16.40;99.90
24682;DHT22;12802;53.390;-2.328;2023-07-29T01:17:03;16.40;99.90
24682;DHT22;12802;53.390;-2.328;2023-07-29T01:22:11;16.40;99.90
24682;DHT22;12802;53.390;-2.328;2023-07-29T01:24:38;16.30;99.90
24682;DHT22;12802;53.390;-2.328;2023-07-29T01:27:04;16.30;99.90
24682;DHT22;12802;53.390;-2.328;2023-07-29T01:29:31;16.30;99.90
24682;DHT22;12802;53.390;-2.328;2023-07-29T01:32:01;16.30;99.90
24682;DHT22;12802;53.390;-2.328;2023-07-29T01:35:00;16.30;99.90
24682;DHT22;12802;53.390;-2.328;2023-07-29T01:37:30;16.20;99.90
24682;DHT22;12802;53.390;-2.328;2023-07-29T01:39:59;16.20;99.90
24682;DHT22;12802;53.390;-2.328;2023-07-29T01:42:25;16.10;99.90
24682;DHT22;12802;53.390;-2.328;2023-07-29T01:44:52;16.20;99.90
24682;DHT22;12802;53.390;-2.328;2023-07-29T01:47:18;16.10;99.90
24682;DHT22;12802;53.390;-2.328;2023-07-29T01:49:44;16.10;99.90
24682;DHT22;12802;53.390;-2.328;2023-07-29T01:52:09;16.10;99.90
24682;DHT22;12802;53.390;-2.328;2023-07-29T01:54:36;16.10;99.90
24682;DHT22;12802;53.390;-2.328;2023-07-29T01:57:02;16.10;99.90
24682;DHT22;12802;53.390;-2.328;2023-07-29T01:59:27;16.10;99.90
24682;DHT22;12802;53.390;-2.328;2023-07-29T02:01:53;16.10;99.90
24682;DHT22;12802;53.390;-2.328;2023-07-29T02:04:19;16.00;99.90
24682;DHT22;12802;53.390;-2.328;2023-07-29T02:06:44;16.00;99.90
24682;DHT22;12802;53.390;-2.328;2023-07-29T02:09:10;16.00;99.90
24682;DHT22;12802;53.390;-2.328;2023-07-29T02:11:36;16.00;99.90
24682;DHT22;12802;53.390;-2.328;2023-07-29T02:14:02;15.90;99.90
24682;DHT22;12802;53.390;-2.328;2023-07-29T02:16:28;16.00;99.90
24682;DHT22;12802;53.390;-2.328;2023-07-29T02:18:53;15.90;99.90
24682;DHT22;12802;53.390;-2.328;2023-07-29T02:21:19;15.90;99.90
24682;DHT22;12802;53.390;-2.328;2023-07-29T02:23:45;15.90;99.90
24682;DHT22;12802;53.390;-2.328;2023-07-29T02:26:11;15.90;99.90
24682;DHT22;12802;53.390;-2.328;2023-07-29T02:28:37;15.90;99.90
24682;DHT22;12802;53.390;-2.328;2023-07-29T02:31:29;15.90;99.90
24682;DHT22;12802;53.390;-2.328;2023-07-29T02:33:55;15.90;99.90
24682;DHT22;12802;53.390;-2.328;2023-07-29T02:36:21;15.90;99.90
24682;DHT22;12802;53.390;-2.328;2023-07-29T02:38:47;15.80;99.90
24682;DHT22;12802;53.390;-2.328;2023-07-29T02:41:13;15.80;99.90
24682;DHT22;12802;53.390;-2.328;2023-07-29T02:43:42;15.80;99.90
24682;DHT22;12802;53.390;-2.328;2023-07-29T02:46:09;15.70;99.90
24682;DHT22;12802;53.390;-2.328;2023-07-29T02:48:35;15.70;99.90
24682;DHT22;12802;53.390;-2.328;2023-07-29T02:51:00;15.70;99.90
24682;DHT22;12802;53.390;-2.328;2023-07-29T02:53:26;15.60;99.90
24682;DHT22;12802;53.390;-2.328;2023-07-29T02:55:52;15.60;99.90
24682;DHT22;12802;53.390;-2.328;2023-07-29T02:58:18;15.60;99.90
24682;DHT22;12802;53.390;-2.328;2023-07-29T03:00:44;15.60;99.90
24682;DHT22;12802;53.390;-2.328;2023-07-29T03:03:10;15.60;99.90
24682;DHT22;12802;53.390;-2.328;2023-07-29T03:05:36;15.60;99.90
24682;DHT22;12802;53.390;-2.328;2023-07-29T03:08:03;15.60;99.90
24682;DHT22;12802;53.390;-2.328;2023-07-29T03:10:29;15.60;99.90
24682;DHT22;12802;53.390;-2.328;2023-07-29T03:12:55;15.60;99.90
24682;DHT22;12802;53.390;-2.328;2023-07-29T03:15:25;15.60;99.90
24682;DHT22;12802;53.390;-2.328;2023-07-29T03:17:52;15.50;99.90
24682;DHT22;12802;53.390;-2.328;2023-07-29T03:20:19;15.50;99.90
24682;DHT22;12802;53.390;-2.328;2023-07-29T03:22:46;15.50;99.90
24682;DHT22;12802;53.390;-2.328;2023-07-29T03:25:12;15.50;99.90
24682;DHT22;12802;53.390;-2.328;2023-07-29T03:27:38;15.40;99.90
24682;DHT22;12802;53.390;-2.328;2023-07-29T03:30:06;15.40;99.90
24682;DHT22;12802;53.390;-2.328;2023-07-29T03:32:32;15.30;99.90
24682;DHT22;12802;53.390;-2.328;2023-07-29T03:34:58;15.30;99.90
24682;DHT22;12802;53.390;-2.328;2023-07-29T03:37:24;15.30;99.90
24682;DHT22;12802;53.390;-2.328;2023-07-29T03:39:50;15.30;99.90
24682;DHT22;12802;53.390;-2.328;2023-07-29T03:44:43;15.40;99.90
24682;DHT22;12802;53.390;-2.328;2023-07-29T03:47:09;15.40;99.90
24682;DHT22;12802;53.390;-2.328;2023-07-29T03:49:37;15.30;99.90
24682;DHT22;12802;53.390;-2.328;2023-07-29T03:52:03;15.30;99.90
24682;DHT22;12802;53.390;-2.328;2023-07-29T03:54:29;15.30;99.90
24682;DHT22;12802;53.390;-2.328;2023-07-29T03:56:55;15.30;99.90
24682;DHT22;12802;53.390;-2.328;2023-07-29T03:59:21;15.30;99.90
24682;DHT22;12802;53.390;-2.328;2023-07-29T04:01:48;15.30;99.90
24682;DHT22;12802;53.390;-2.328;2023-07-29T04:04:14;15.30;99.90
24682;DHT22;12802;53.390;-2.328;2023-07-29T04:06:40;15.20;99.90
24682;DHT22;12802;53.390;-2.328;2023-07-29T04:09:05;15.20;99.90
24682;DHT22;12802;53.390;-2.328;2023-07-29T04:11:32;15.30;99.90
24682;DHT22;12802;53.390;-2.328;2023-07-29T04:13:57;15.30;99.90
24682;DHT22;12802;53.390;-2.328;2023-07-29T04:16:23;15.30;99.90
24682;DHT22;12802;53.390;-2.328;2023-07-29T04:18:51;15.20;99.90
24682;DHT22;12802;53.390;-2.328;2023-07-29T04:21:17;15.20;99.90
24682;DHT22;12802;53.390;-2.328;2023-07-29T04:23:43;15.30;99.90
24682;DHT22;12802;53.390;-2.328;2023-07-29T04:26:08;15.30;99.90
24682;DHT22;12802;53.390;-2.328;2023-07-29T04:28:34;15.30;99.90
24682;DHT22;12802;53.390;-2.328;2023-07-29T04:31:00;15.40;99.90
24682;DHT22;12802;53.390;-2.328;2023-07-29T04:33:26;15.40;99.90
24682;DHT22;12802;53.390;-2.328;2023-07-29T04:35:51;15.30;99.90
24682;DHT22;12802;53.390;-2.328;2023-07-29T04:38:17;15.30;99.90
24682;DHT22;12802;53.390;-2.328;2023-07-29T04:40:43;15.30;99.90
24682;DHT22;12802;53.390;-2.328;2023-07-29T04:43:08;15.30;99.90
24682;DHT22;12802;53.390;-2.328;2023-07-29T04:45:34;15.30;99.90
24682;DHT22;12802;53.390;-2.328;2023-07-29T04:48:00;15.30;99.90
24682;DHT22;12802;53.390;-2.328;2023-07-29T04:50:26;15.30;99.90
24682;DHT22;12802;53.390;-2.328;2023-07-29T04:52:51;15.40;99.90
24682;DHT22;12802;53.390;-2.328;2023-07-29T04:55:18;15.40;99.90
24682;DHT22;12802;53.390;-2.328;2023-07-29T04:57:44;15.40;99.90
24682;DHT22;12802;53.390;-2.328;2023-07-29T05:00:10;15.40;99.90
24682;DHT22;12802;53.390;-2.328;2023-07-29T05:02:36;15.40;99.90
24682;DHT22;12802;53.390;-2.328;2023-07-29T05:05:02;15.40;99.90
24682;DHT22;12802;53.390;-2.328;2023-07-29T05:07:29;15.40;99.90
24682;DHT22;12802;53.390;-2.328;2023-07-29T05:09:55;15.40;99.90
24682;DHT22;12802;53.390;-2.328;2023-07-29T05:12:20;15.40;99.90
24682;DHT22;12802;53.390;-2.328;2023-07-29T05:14:46;15.40;99.90
24682;DHT22;12802;53.390;-2.328;2023-07-29T05:17:13;15.40;99.90
24682;DHT22;12802;53.390;-2.328;2023-07-29T05:19:39;15.40;99.90
24682;DHT22;12802;53.390;-2.328;2023-07-29T05:22:05;15.50;99.90
24682;DHT22;12802;53.390;-2.328;2023-07-29T05:24:31;15.40;99.90
24682;DHT22;12802;53.390;-2.328;2023-07-29T05:26:57;15.40;99.90
24682;DHT22;12802;53.390;-2.328;2023-07-29T05:29:23;15.40;99.90
24682;DHT22;12802;53.390;-2.328;2023-07-29T05:31:50;15.40;99.90
24682;DHT22;12802;53.390;-2.328;2023-07-29T05:34:15;15.40;99.90
24682;DHT22;12802;53.390;-2.328;2023-07-29T05:36:41;15.50;99.90
24682;DHT22;12802;53.390;-2.328;2023-07-29T05:39:07;15.50;99.90
24682;DHT22;12802;53.390;-2.328;2023-07-29T05:41:33;15.50;99.90
24682;DHT22;12802;53.390;-2.328;2023-07-29T05:43:58;15.50;99.90
24682;DHT22;12802;53.390;-2.328;2023-07-29T05:46:25;15.50;99.90
24682;DHT22;12802;53.390;-2.328;2023-07-29T05:48:50;15.50;99.90
24682;DHT22;12802;53.390;-2.328;2023-07-29T05:53:42;15.60;99.90
24682;DHT22;12802;53.390;-2.328;2023-07-29T05:56:08;15.60;99.90
24682;DHT22;12802;53.390;-2.328;2023-07-29T05:58:35;15.60;99.90
24682;DHT22;12802;53.390;-2.328;2023-07-29T06:01:01;15.70;99.90
24682;DHT22;12802;53.390;-2.328;2023-07-29T06:03:27;15.70;99.90
24682;DHT22;12802;53.390;-2.328;2023-07-29T06:05:53;15.70;99.90
24682;DHT22;12802;53.390;-2.328;2023-07-29T06:08:19;15.80;99.90
24682;DHT22;12802;53.390;-2.328;2023-07-29T06:10:45;15.80;99.90
24682;DHT22;12802;53.390;-2.328;2023-07-29T06:13:11;15.80;99.90
24682;DHT22;12802;53.390;-2.328;2023-07-29T06:15:36;15.80;99.90
24682;DHT22;12802;53.390;-2.328;2023-07-29T06:18:02;15.90;99.90
24682;DHT22;12802;53.390;-2.328;2023-07-29T06:20:28;15.90;99.90
24682;DHT22;12802;53.390;-2.328;2023-07-29T06:22:54;15.90;99.90
24682;DHT22;12802;53.390;-2.328;2023-07-29T06:25:20;15.90;99.90
24682;DHT22;12802;53.390;-2.328;2023-07-29T06:27:45;15.80;99.90
24682;DHT22;12802;53.390;-2.328;2023-07-29T06:30:11;15.90;99.90
24682;DHT22;12802;53.390;-2.328;2023-07-29T06:32:37;15.80;99.90
24682;DHT22;12802;53.390;-2.328;2023-07-29T06:35:03;15.80;99.90
24682;DHT22;12802;53.390;-2.328;2023-07-29T06:37:29;15.90;99.90
24682;DHT22;12802;53.390;-2.328;2023-07-29T06:39:54;15.90;99.90
24682;DHT22;12802;53.390;-2.328;2023-07-29T06:42:20;15.90;99.90
24682;DHT22;12802;53.390;-2.328;2023-07-29T06:44:46;15.90;99.90
24682;DHT22;12802;53.390;-2.328;2023-07-29T06:47:12;15.90;99.90
24682;DHT22;12802;53.390;-2.328;2023-07-29T06:49:37;15.90;99.90
24682;DHT22;12802;53.390;-2.328;2023-07-29T06:52:04;15.90;99.90
24682;DHT22;12802;53.390;-2.328;2023-07-29T06:54:29;15.80;99.90
24682;DHT22;12802;53.390;-2.328;2023-07-29T06:56:55;15.80;99.90
24682;DHT22;12802;53.390;-2.328;2023-07-29T06:59:21;15.70;99.90
24682;DHT22;12802;53.390;-2.328;2023-07-29T07:01:46;15.70;99.90
24682;DHT22;12802;53.390;-2.328;2023-07-29T07:04:12;15.60;99.90
24682;DHT22;12802;53.390;-2.328;2023-07-29T07:06:38;15.60;99.90
24682;DHT22;12802;53.390;-2.328;2023-07-29T07:09:04;15.50;99.90
24682;DHT22;12802;53.390;-2.328;2023-07-29T07:11:29;15.50;99.90
24682;DHT22;12802;53.390;-2.328;2023-07-29T07:13:55;15.50;99.90
24682;DHT22;12802;53.390;-2.328;2023-07-29T07:16:21;15.60;99.90
24682;DHT22;12802;53.390;-2.328;2023-07-29T07:18:47;15.60;99.90
24682;DHT22;12802;53.390;-2.328;2023-07-29T07:21:13;15.60;99.90
24682;DHT22;12802;53.390;-2.328;2023-07-29T07:23:41;15.70;99.90
24682;DHT22;12802;53.390;-2.328;2023-07-29T07:26:07;15.80;99.90
24682;DHT22;12802;53.390;-2.328;2023-07-29T07:28:33;15.70;99.90
24682;DHT22;12802;53.390;-2.328;2023-07-29T07:30:58;15.80;99.90
24682;DHT22;12802;53.390;-2.328;2023-07-29T07:33:24;15.80;99.90
24682;DHT22;12802;53.390;-2.328;2023-07-29T07:35:50;15.80;99.90
24682;DHT22;12802;53.390;-2.328;2023-07-29T07:38:16;15.80;99.90
24682;DHT22;12802;53.390;-2.328;2023-07-29T07:40:42;15.90;99.90
24682;DHT22;12802;53.390;-2.328;2023-07-29T07:43:07;16.00;99.90
24682;DHT22;12802;53.390;-2.328;2023-07-29T07:45:33;16.00;99.90
24682;DHT22;12802;53.390;-2.328;2023-07-29T07:47:59;16.00;99.90
24682;DHT22;12802;53.390;-2.328;2023-07-29T07:50:24;15.90;99.90
24682;DHT22;12802;53.390;-2.328;2023-07-29T07:52:50;15.90;99.90
24682;DHT22;12802;53.390;-2.328;2023-07-29T07:55:16;16.00;99.90
24682;DHT22;12802;53.390;-2.328;2023-07-29T07:57:41;16.00;99.90
24682;DHT22;12802;53.390;-2.328;2023-07-29T08:00:07;16.10;99.90
24682;DHT22;12802;53.390;-2.328;2023-07-29T08:02:41;16.10;99.90
24682;DHT22;12802;53.390;-2.328;2023-07-29T08:05:07;16.10;99.90
24682;DHT22;12802;53.390;-2.328;2023-07-29T08:07:33;16.10;99.90
24682;DHT22;12802;53.390;-2.328;2023-07-29T08:09:58;16.10;99.90
24682;DHT22;12802;53.390;-2.328;2023-07-29T08:12:24;16.10;99.90
24682;DHT22;12802;53.390;-2.328;2023-07-29T08:14:50;16.20;99.90
24682;DHT22;12802;53.390;-2.328;2023-07-29T08:17:15;16.30;99.90
24682;DHT22;12802;53.390;-2.328;2023-07-29T08:19:41;16.30;99.90
24682;DHT22;12802;53.390;-2.328;2023-07-29T08:22:07;16.40;99.90
24682;DHT22;12802;53.390;-2.328;2023-07-29T08:24:33;16.60;99.90
24682;DHT22;12802;53.390;-2.328;2023-07-29T08:26:59;16.50;99.90
24682;DHT22;12802;53.390;-2.328;2023-07-29T08:29:25;16.60;99.90
24682;DHT22;12802;53.390;-2.328;2023-07-29T08:31:51;16.70;99.90
24682;DHT22;12802;53.390;-2.328;2023-07-29T08:34:17;16.90;99.90
24682;DHT22;12802;53.390;-2.328;2023-07-29T08:36:43;17.00;99.90
24682;DHT22;12802;53.390;-2.328;2023-07-29T08:39:08;17.00;99.90
24682;DHT22;12802;53.390;-2.328;2023-07-29T08:42:10;17.00;99.90
24682;DHT22;12802;53.390;-2.328;2023-07-29T08:44:43;17.10;99.90
24682;DHT22;12802;53.390;-2.328;2023-07-29T08:47:10;17.10;99.90
24682;DHT22;12802;53.390;-2.328;2023-07-29T08:49:37;17.10;99.90
24682;DHT22;12802;53.390;-2.328;2023-07-29T08:52:04;17.10;99.90
24682;DHT22;12802;53.390;-2.328;2023-07-29T08:54:30;17.10;99.90
24682;DHT22;12802;53.390;-2.328;2023-07-29T08:56:57;17.20;99.90
24682;DHT22;12802;53.390;-2.328;2023-07-29T08:59:23;17.30;99.90
24682;DHT22;12802;53.390;-2.328;2023-07-29T09:01:49;17.30;99.90
24682;DHT22;12802;53.390;-2.328;2023-07-29T09:04:15;17.40;99.90
24682;DHT22;12802;53.390;-2.328;2023-07-29T09:06:43;17.60;99.90
24682;DHT22;12802;53.390;-2.328;2023-07-29T09:09:09;17.60;99.90
24682;DHT22;12802;53.390;-2.328;2023-07-29T09:11:35;17.80;99.90
24682;DHT22;12802;53.390;-2.328;2023-07-29T09:14:01;17.80;99.90
24682;DHT22;12802;53.390;-2.328;2023-07-29T09:16:27;17.80;99.90
24682;DHT22;12802;53.390;-2.328;2023-07-29T09:18:53;17.70;99.90
24682;DHT22;12802;53.390;-2.328;2023-07-29T09:23:52;17.50;99.90
24682;DHT22;12802;53.390;-2.328;2023-07-29T09:26:28;17.50;99.90
24682;DHT22;12802;53.390;-2.328;2023-07-29T09:28:55;17.50;99.90
24682;DHT22;12802;53.390;-2.328;2023-07-29T09:31:23;17.40;99.90
24682;DHT22;12802;53.390;-2.328;2023-07-29T09:33:49;17.30;99.90
24682;DHT22;12802;53.390;-2.328;2023-07-29T09:36:16;17.30;99.90
24682;DHT22;12802;53.390;-2.328;2023-07-29T09:38:43;17.30;99.90
24682;DHT22;12802;53.390;-2.328;2023-07-29T09:41:12;17.30;99.90
24682;DHT22;12802;53.390;-2.328;2023-07-29T09:43:39;17.30;99.90
24682;DHT22;12802;53.390;-2.328;2023-07-29T09:46:05;17.30;99.90
24682;DHT22;12802;53.390;-2.328;2023-07-29T09:48:38;17.30;99.90
24682;DHT22;12802;53.390;-2.328;2023-07-29T09:51:14;17.20;99.90
24682;DHT22;12802;53.390;-2.328;2023-07-29T09:53:42;17.10;99.90
24682;DHT22;12802;53.390;-2.328;2023-07-29T09:56:08;17.00;99.90
24682;DHT22;12802;53.390;-2.328;2023-07-29T09:58:35;17.10;99.90
24682;DHT22;12802;53.390;-2.328;2023-07-29T10:01:01;17.20;99.90
24682;DHT22;12802;53.390;-2.328;2023-07-29T10:03:27;17.30;99.90
24682;DHT22;12802;53.390;-2.328;2023-07-29T10:05:54;17.40;99.90
24682;DHT22;12802;53.390;-2.328;2023-07-29T10:08:20;17.40;99.90
24682;DHT22;12802;53.390;-2.328;2023-07-29T10:10:50;17.60;99.90
24682;DHT22;12802;53.390;-2.328;2023-07-29T10:13:16;17.70;99.90
24682;DHT22;12802;53.390;-2.328;2023-07-29T10:15:42;17.90;99.90
24682;DHT22;12802;53.390;-2.328;2023-07-29T10:18:09;18.20;99.90
24682;DHT22;12802;53.390;-2.328;2023-07-29T10:20:35;18.50;99.90
24682;DHT22;12802;53.390;-2.328;2023-07-29T10:23:02;18.70;99.90
24682;DHT22;12802;53.390;-2.328;2023-07-29T10:25:38;18.80;99.90
24682;DHT22;12802;53.390;-2.328;2023-07-29T10:28:07;19.00;99.90
24682;DHT22;12802;53.390;-2.328;2023-07-29T10:30:34;19.30;99.90
24682;DHT22;12802;53.390;-2.328;2023-07-29T10:33:02;19.40;99.90
24682;DHT22;12802;53.390;-2.328;2023-07-29T10:35:29;19.70;99.90
24682;DHT22;12802;53.390;-2.328;2023-07-29T10:37:55;19.80;99.90
24682;DHT22;12802;53.390;-2.328;2023-07-29T10:40:22;19.90;99.90
24682;DHT22;12802;53.390;-2.328;2023-07-29T10:43:02;20.00;99.90
24682;DHT22;12802;53.390;-2.328;2023-07-29T10:45:40;20.30;99.90
24682;DHT22;12802;53.390;-2.328;2023-07-29T10:51:23;19.90;99.90
24682;DHT22;12802;53.390;-2.328;2023-07-29T10:53:57;19.70;99.90
24682;DHT22;12802;53.390;-2.328;2023-07-29T10:56:36;20.10;99.90
24682;DHT22;12802;53.390;-2.328;2023-07-29T10:59:30;20.10;99.90
24682;DHT22;12802;53.390;-2.328;2023-07-29T11:01:58;19.70;99.90
24682;DHT22;12802;53.390;-2.328;2023-07-29T11:04:28;19.50;99.90
24682;DHT22;12802;53.390;-2.328;2023-07-29T11:10:01;19.10;99.90
24682;DHT22;12802;53.390;-2.328;2023-07-29T11:20:07;19.40;99.90
24682;DHT22;12802;53.390;-2.328;2023-07-29T11:22:34;19.50;99.90
24682;DHT22;12802;53.390;-2.328;2023-07-29T11:27:26;20.30;99.90
24682;DHT22;12802;53.390;-2.328;2023-07-29T11:30:04;20.20;99.90
24682;DHT22;12802;53.390;-2.328;2023-07-29T11:32:34;20.00;99.90
24682;DHT22;12802;53.390;-2.328;2023-07-29T11:35:17;19.80;99.90
24682;DHT22;12802;53.390;-2.328;2023-07-29T12:12:11;19.70;99.90
24682;DHT22;12802;53.390;-2.328;2023-07-29T12:14:37;19.70;99.90
24682;DHT22;12802;53.390;-2.328;2023-07-29T12:17:05;19.70;99.90
24682;DHT22;12802;53.390;-2.328;2023-07-29T12:19:35;19.60;99.90
24682;DHT22;12802;53.390;-2.328;2023-07-29T12:31:49;19.60;99.90
24682;DHT22;12802;53.390;-2.328;2023-07-29T12:34:22;19.90;99.90
24682;DHT22;12802;53.390;-2.328;2023-07-29T12:36:49;20.40;99.90
24682;DHT22;12802;53.390;-2.328;2023-07-29T12:46:39;20.40;99.90
24682;DHT22;12802;53.390;-2.328;2023-07-29T12:49:04;20.50;99.90
24682;DHT22;12802;53.390;-2.328;2023-07-29T12:51:30;20.70;99.90
24682;DHT22;12802;53.390;-2.328;2023-07-29T13:01:15;20.10;99.90
24682;DHT22;12802;53.390;-2.328;2023-07-29T13:03:48;20.10;99.90
24682;DHT22;12802;53.390;-2.328;2023-07-29T13:06:15;20.10;99.90
24682;DHT22;12802;53.390;-2.328;2023-07-29T13:08:41;20.10;99.90
24682;DHT22;12802;53.390;-2.328;2023-07-29T13:13:34;20.40;99.90
24682;DHT22;12802;53.390;-2.328;2023-07-29T13:15:59;20.60;99.90
24682;DHT22;12802;53.390;-2.328;2023-07-29T13:25:45;20.00;99.90
24682;DHT22;12802;53.390;-2.328;2023-07-29T13:28:11;19.90;99.90
24682;DHT22;12802;53.390;-2.328;2023-07-29T13:30:39;19.80;99.90
24682;DHT22;12802;53.390;-2.328;2023-07-29T13:33:05;19.80;99.90
24682;DHT22;12802;53.390;-2.328;2023-07-29T13:35:31;20.00;99.90
24682;DHT22;12802;53.390;-2.328;2023-07-29T13:37:57;20.40;99.90
24682;DHT22;12802;53.390;-2.328;2023-07-29T13:45:15;20.00;99.90
24682;DHT22;12802;53.390;-2.328;2023-07-29T13:47:41;19.90;99.90
24682;DHT22;12802;53.390;-2.328;2023-07-29T13:50:07;19.90;99.90
24682;DHT22;12802;53.390;-2.328;2023-07-29T13:57:29;21.00;99.90
24682;DHT22;12802;53.390;-2.328;2023-07-29T13:59:55;21.20;99.90
24682;DHT22;12802;53.390;-2.328;2023-07-29T14:02:21;21.00;99.90
24682;DHT22;12802;53.390;-2.328;2023-07-29T14:04:47;20.70;99.90
24682;DHT22;12802;53.390;-2.328;2023-07-29T14:07:13;20.50;99.90
24682;DHT22;12802;53.390;-2.328;2023-07-29T14:09:39;20.40;99.90
24682;DHT22;12802;53.390;-2.328;2023-07-29T14:12:06;20.30;99.90
24682;DHT22;12802;53.390;-2.328;2023-07-29T14:14:32;20.20;99.90
24682;DHT22;12802;53.390;-2.328;2023-07-29T14:16:58;20.10;99.90
24682;DHT22;12802;53.390;-2.328;2023-07-29T14:19:24;20.00;99.90
24682;DHT22;12802;53.390;-2.328;2023-07-29T14:21:50;20.00;99.90
24682;DHT22;12802;53.390;-2.328;2023-07-29T14:24:15;19.80;99.90
24682;DHT22;12802;53.390;-2.328;2023-07-29T14:34:00;19.80;99.90
24682;DHT22;12802;53.390;-2.328;2023-07-29T14:36:26;20.00;99.90
24682;DHT22;12802;53.390;-2.328;2023-07-29T14:38:51;20.20;99.90
24682;DHT22;12802;53.390;-2.328;2023-07-29T14:41:17;20.50;99.90
24682;DHT22;12802;53.390;-2.328;2023-07-29T14:43:43;20.70;99.90
24682;DHT22;12802;53.390;-2.328;2023-07-29T14:48:35;20.60;99.90
24682;DHT22;12802;53.390;-2.328;2023-07-29T14:53:27;21.20;99.90
24682;DHT22;12802;53.390;-2.328;2023-07-29T14:55:53;21.30;99.90
24682;DHT22;12802;53.390;-2.328;2023-07-29T14:58:19;21.00;99.90
24682;DHT22;12802;53.390;-2.328;2023-07-29T15:00:45;20.90;99.90
24682;DHT22;12802;53.390;-2.328;2023-07-29T15:03:11;21.50;99.90
24682;DHT22;12802;53.390;-2.328;2023-07-29T15:05:36;22.10;99.90
24682;DHT22;12802;53.390;-2.328;2023-07-29T15:08:02;23.20;99.90
24682;DHT22;12802;53.390;-2.328;2023-07-29T15:10:28;24.20;99.90
24682;DHT22;12802;53.390;-2.328;2023-07-29T15:12:54;25.10;99.90
24682;DHT22;12802;53.390;-2.328;2023-07-29T15:15:19;25.40;99.90
24682;DHT22;12802;53.390;-2.328;2023-07-29T15:17:45;24.60;99.90
24682;DHT22;12802;53.390;-2.328;2023-07-29T15:20:11;23.40;99.90
24682;DHT22;12802;53.390;-2.328;2023-07-29T15:22:37;23.80;99.90
24682;DHT22;12802;53.390;-2.328;2023-07-29T15:25:04;24.70;99.90
24682;DHT22;12802;53.390;-2.328;2023-07-29T15:27:30;24.40;99.90
24682;DHT22;12802;53.390;-2.328;2023-07-29T15:39:41;23.10;99.90
24682;DHT22;12802;53.390;-2.328;2023-07-29T17:07:32;22.30;99.90
24682;DHT22;12802;53.390;-2.328;2023-07-29T17:09:58;21.90;99.90
24682;DHT22;12802;53.390;-2.328;2023-07-29T17:12:24;21.40;99.90
24682;DHT22;12802;53.390;-2.328;2023-07-29T17:14:50;21.30;99.90
24682;DHT22;12802;53.390;-2.328;2023-07-29T17:17:16;21.10;99.90
24682;DHT22;12802;53.390;-2.328;2023-07-29T17:19:41;20.90;99.90
24682;DHT22;12802;53.390;-2.328;2023-07-29T17:22:07;20.90;99.90
24682;DHT22;12802;53.390;-2.328;2023-07-29T17:24:33;20.80;99.90
24682;DHT22;12802;53.390;-2.328;2023-07-29T17:26:59;20.80;99.90
24682;DHT22;12802;53.390;-2.328;2023-07-29T17:29:25;20.90;99.90
24682;DHT22;12802;53.390;-2.328;2023-07-29T17:31:51;20.80;99.90
24682;DHT22;12802;53.390;-2.328;2023-07-29T17:34:16;20.70;99.90
24682;DHT22;12802;53.390;-2.328;2023-07-29T17:36:43;20.50;99.90
24682;DHT22;12802;53.390;-2.328;2023-07-29T17:39:09;20.40;99.90
24682;DHT22;12802;53.390;-2.328;2023-07-29T17:41:35;20.20;99.90
24682;DHT22;12802;53.390;-2.328;2023-07-29T17:44:00;20.20;99.90
24682;DHT22;12802;53.390;-2.328;2023-07-29T17:46:26;20.20;99.90
24682;DHT22;12802;53.390;-2.328;2023-07-29T17:48:52;20.20;99.90
24682;DHT22;12802;53.390;-2.328;2023-07-29T17:51:17;20.10;99.90
24682;DHT22;12802;53.390;-2.328;2023-07-29T17:53:43;19.90;99.90
24682;DHT22;12802;53.390;-2.328;2023-07-29T17:56:09;19.80;99.90
24682;DHT22;12802;53.390;-2.328;2023-07-29T17:58:35;19.70;99.90
24682;DHT22;12802;53.390;-2.328;2023-07-29T18:01:02;19.70;99.90
24682;DHT22;12802;53.390;-2.328;2023-07-29T18:03:28;19.70;99.90
24682;DHT22;12802;53.390;-2.328;2023-07-29T18:05:54;19.70;99.90
24682;DHT22;12802;53.390;-2.328;2023-07-29T18:08:20;19.70;99.90
24682;DHT22;12802;53.390;-2.328;2023-07-29T18:10:46;19.70;99.90
24682;DHT22;12802;53.390;-2.328;2023-07-29T18:13:11;19.50;99.90
24682;DHT22;12802;53.390;-2.328;2023-07-29T18:15:37;19.50;99.90
24682;DHT22;12802;53.390;-2.328;2023-07-29T18:18:03;19.40;99.90
24682;DHT22;12802;53.390;-2.328;2023-07-29T18:20:31;19.40;99.90
24682;DHT22;12802;53.390;-2.328;2023-07-29T18:22:57;19.40;99.90
24682;DHT22;12802;53.390;-2.328;2023-07-29T18:25:31;19.30;99.90
24682;DHT22;12802;53.390;-2.328;2023-07-29T18:27:57;19.30;99.90
24682;DHT22;12802;53.390;-2.328;2023-07-29T18:30:23;19.20;99.90
24682;DHT22;12802;53.390;-2.328;2023-07-29T18:32:49;19.20;99.90
24682;DHT22;12802;53.390;-2.328;2023-07-29T18:35:15;19.20;99.90
24682;DHT22;12802;53.390;-2.328;2023-07-29T18:37:47;19.20;99.90
24682;DHT22;12802;53.390;-2.328;2023-07-29T18:40:13;19.10;99.90
24682;DHT22;12802;53.390;-2.328;2023-07-29T18:42:39;19.10;99.90
24682;DHT22;12802;53.390;-2.328;2023-07-29T18:45:06;19.00;99.90
24682;DHT22;12802;53.390;-2.328;2023-07-29T18:47:32;18.90;99.90